Time;durP1;ratioP1;P1;durP2;ratioP2;P2;SDS_P1;SDS_P2;PMS_P1;PMS_P2;Temp;Humidity;BMP_temperature;BMP_pressure;BME280_temperature;BME280_humidity;BME280_pressure;Samples;Min_cycle;Max_cycle;Signal;HPM_P1;HPM_P2
2023/05/30 00:01:22;;;;;;;12.90;3.75;;;11.10;99.90;;;;;;5060518;28;20427;-75
2023/05/30 00:03:49;;;;;;;13.82;3.63;;;11.10;99.90;;;;;;5061941;28;20420;-75
2023/05/30 00:06:16;;;;;;;14.88;4.22;;;11.10;99.90;;;;;;5060974;28;20083;-75
2023/05/30 00:08:43;;;;;;;11.05;3.90;;;11.10;99.90;;;;;;5058014;28;20044;-75
2023/05/30 00:11:13;;;;;;;15.95;4.20;;;11.10;99.90;;;;;;5060926;28;20141;-77
2023/05/30 00:13:42;;;;;;;13.93;4.07;;;11.10;99.90;;;;;;5061411;28;20069;-76
2023/05/30 00:16:10;;;;;;;15.18;3.78;;;11.10;99.90;;;;;;5039049;28;20058;-75
2023/05/30 00:18:37;;;;;;;15.98;4.00;;;11.10;99.90;;;;;;5076356;28;20409;-76
2023/05/30 00:21:07;;;;;;;13.02;3.97;;;11.10;99.90;;;;;;5060206;28;20106;-74
2023/05/30 00:23:35;;;;;;;10.10;4.15;;;11.10;99.90;;;;;;5063711;28;20128;-75
2023/05/30 00:26:01;;;;;;;19.27;4.13;;;11.10;99.90;;;;;;5059722;28;20037;-75
2023/05/30 00:28:27;;;;;;;15.10;4.57;;;11.10;99.90;;;;;;5062310;28;20125;-75
2023/05/30 00:30:53;;;;;;;11.38;3.50;;;11.10;99.90;;;;;;5060012;28;20044;-75
2023/05/30 00:33:20;;;;;;;13.30;3.70;;;11.10;99.90;;;;;;5060244;28;20063;-74
2023/05/30 00:35:49;;;;;;;13.05;4.35;;;11.10;99.90;;;;;;5060724;28;20040;-75
2023/05/30 00:38:15;;;;;;;7.90;3.40;;;11.10;99.90;;;;;;5056989;28;20045;-74
2023/05/30 00:40:44;;;;;;;16.02;3.83;;;11.10;99.90;;;;;;5043651;28;21576;-75
2023/05/30 00:43:10;;;;;;;12.02;3.53;;;11.10;99.90;;;;;;5056960;28;20097;-76
2023/05/30 00:45:35;;;;;;;11.77;3.85;;;11.10;99.90;;;;;;5043046;28;20044;-77
2023/05/30 00:48:02;;;;;;;11.27;4.25;;;11.00;99.90;;;;;;5059146;28;20048;-76
2023/05/30 00:50:30;;;;;;;11.57;4.05;;;11.00;99.90;;;;;;5063057;28;20067;-75
2023/05/30 00:52:57;;;;;;;12.25;4.00;;;11.00;99.90;;;;;;5061261;28;20075;-75
2023/05/30 00:55:23;;;;;;;12.88;3.85;;;11.00;99.90;;;;;;5041172;28;20041;-77
2023/05/30 00:57:49;;;;;;;9.75;3.45;;;11.00;99.90;;;;;;5043303;28;20109;-76
2023/05/30 01:00:19;;;;;;;13.20;4.00;;;11.00;99.90;;;;;;5060502;28;20119;-76
2023/05/30 01:02:49;;;;;;;15.13;3.85;;;11.00;99.90;;;;;;5057250;28;20048;-77
2023/05/30 01:05:14;;;;;;;10.65;3.60;;;11.00;99.90;;;;;;5054185;28;20119;-76
2023/05/30 01:07:44;;;;;;;17.75;4.65;;;11.00;99.90;;;;;;5060973;28;20469;-76
2023/05/30 01:10:18;;;;;;;13.55;3.63;;;11.00;99.90;;;;;;5059066;28;20052;-76
2023/05/30 01:13:18;;;;;;;15.45;3.83;;;11.00;99.90;;;;;;5059575;28;20041;-77
2023/05/30 01:15:54;;;;;;;11.95;3.50;;;11.00;99.90;;;;;;5055049;28;20507;-76
2023/05/30 01:18:38;;;;;;;9.43;3.60;;;11.00;99.90;;;;;;5061784;28;20061;-77
2023/05/30 01:21:13;;;;;;;9.15;3.40;;;11.00;99.90;;;;;;5060337;28;20098;-76
2023/05/30 01:23:44;;;;;;;11.82;3.50;;;11.00;99.90;;;;;;5059157;28;20123;-77
2023/05/30 01:26:40;;;;;;;16.58;4.13;;;11.00;99.90;;;;;;5064683;28;20079;-76
2023/05/30 01:29:07;;;;;;;14.82;4.10;;;11.00;99.90;;;;;;5060891;28;20125;-76
2023/05/30 01:31:34;;;;;;;15.02;4.88;;;11.00;99.90;;;;;;5068745;28;20538;-76
2023/05/30 01:34:01;;;;;;;15.43;3.95;;;11.00;99.90;;;;;;5065780;28;20399;-76
2023/05/30 01:36:29;;;;;;;15.45;4.30;;;11.00;99.90;;;;;;5063458;28;20067;-77
2023/05/30 01:38:54;;;;;;;16.48;5.35;;;11.00;99.90;;;;;;5060063;28;20515;-77
2023/05/30 01:41:28;;;;;;;14.05;4.38;;;11.00;99.90;;;;;;5062555;28;20044;-77
2023/05/30 01:44:07;;;;;;;14.77;4.50;;;11.00;99.90;;;;;;5065384;28;20503;-77
2023/05/30 01:46:34;;;;;;;13.60;4.40;;;11.00;99.90;;;;;;5049163;28;20158;-77
2023/05/30 01:49:27;;;;;;;11.82;3.85;;;11.10;99.90;;;;;;5063332;28;20044;-76
2023/05/30 01:51:58;;;;;;;12.25;3.38;;;11.00;99.90;;;;;;5058533;28;20033;-77
2023/05/30 01:54:27;;;;;;;15.13;4.15;;;11.10;99.90;;;;;;5062031;28;20048;-77
2023/05/30 01:56:58;;;;;;;12.18;3.65;;;11.10;99.90;;;;;;5056157;28;20052;-75
2023/05/30 01:59:27;;;;;;;15.20;3.90;;;11.10;99.90;;;;;;5061968;28;20556;-76
2023/05/30 02:01:56;;;;;;;13.38;4.30;;;11.10;99.90;;;;;;5061793;28;20059;-77
2023/05/30 02:04:23;;;;;;;12.65;3.67;;;11.00;99.90;;;;;;5059729;28;20049;-76
2023/05/30 02:06:49;;;;;;;13.52;4.10;;;11.10;99.90;;;;;;5058782;28;20158;-75
2023/05/30 02:09:15;;;;;;;20.05;4.47;;;11.10;99.90;;;;;;5062361;28;20044;-76
2023/05/30 02:11:41;;;;;;;13.43;4.15;;;11.10;99.90;;;;;;5047018;28;20041;-76
2023/05/30 02:14:07;;;;;;;14.85;4.30;;;11.10;99.90;;;;;;5040411;28;20049;-75
2023/05/30 02:16:33;;;;;;;14.85;4.20;;;11.10;99.90;;;;;;5045164;28;20044;-75
2023/05/30 02:18:58;;;;;;;20.15;4.30;;;11.10;99.90;;;;;;5066354;28;20059;-76
2023/05/30 02:21:24;;;;;;;13.55;3.75;;;11.10;99.90;;;;;;5062865;28;20045;-76
2023/05/30 02:23:50;;;;;;;15.98;4.65;;;11.10;99.90;;;;;;5045997;28;20043;-76
2023/05/30 02:26:19;;;;;;;15.52;4.65;;;11.10;99.90;;;;;;5064568;28;20055;-75
2023/05/30 02:28:44;;;;;;;12.43;3.70;;;11.10;99.90;;;;;;5063885;28;20044;-76
2023/05/30 02:31:10;;;;;;;30.25;5.28;;;11.10;99.90;;;;;;5058253;28;20115;-76
2023/05/30 02:33:35;;;;;;;14.98;3.97;;;11.10;99.90;;;;;;5061995;28;20403;-76
2023/05/30 02:36:01;;;;;;;19.83;4.82;;;11.10;99.90;;;;;;5065005;28;20045;-75
2023/05/30 02:38:27;;;;;;;14.32;3.63;;;11.10;99.90;;;;;;5062588;28;20089;-75
2023/05/30 02:40:52;;;;;;;14.60;4.40;;;11.10;99.90;;;;;;5064744;28;20060;-76
2023/05/30 02:43:20;;;;;;;17.90;3.80;;;11.20;99.90;;;;;;5063396;28;20064;-76
2023/05/30 02:45:48;;;;;;;14.80;4.95;;;11.20;99.90;;;;;;5061296;28;20087;-77
2023/05/30 02:48:14;;;;;;;16.67;4.13;;;11.10;99.90;;;;;;5059935;28;20036;-76
2023/05/30 02:50:40;;;;;;;12.40;3.78;;;11.10;99.90;;;;;;5060325;28;20033;-75
2023/05/30 02:53:05;;;;;;;13.68;3.60;;;11.10;99.90;;;;;;5062405;28;20086;-75
2023/05/30 02:55:31;;;;;;;16.17;4.38;;;11.10;99.90;;;;;;5041759;28;20143;-76
2023/05/30 02:57:57;;;;;;;13.88;3.88;;;11.10;99.90;;;;;;5060554;28;20041;-75
2023/05/30 03:00:22;;;;;;;14.13;3.80;;;11.10;99.90;;;;;;5062275;28;20056;-75
2023/05/30 03:02:49;;;;;;;16.70;3.92;;;11.10;99.90;;;;;;5062147;28;20119;-75
2023/05/30 03:05:18;;;;;;;13.00;4.05;;;11.10;99.90;;;;;;5061454;28;20559;-75
2023/05/30 03:07:45;;;;;;;19.20;4.68;;;11.10;99.90;;;;;;5062145;28;20552;-76
2023/05/30 03:10:13;;;;;;;15.25;5.40;;;11.20;99.90;;;;;;5060007;28;20488;-75
2023/05/30 03:12:40;;;;;;;23.73;4.95;;;11.20;99.90;;;;;;5061022;28;20070;-76
2023/05/30 03:15:06;;;;;;;15.10;3.80;;;11.20;99.90;;;;;;5059933;28;20055;-75
2023/05/30 03:17:32;;;;;;;20.40;4.43;;;11.20;99.90;;;;;;5061567;28;20065;-75
2023/05/30 03:19:58;;;;;;;16.48;3.90;;;11.20;99.90;;;;;;5062855;28;20064;-75
2023/05/30 03:22:23;;;;;;;16.08;4.57;;;11.20;99.90;;;;;;5062588;28;20047;-75
2023/05/30 03:24:49;;;;;;;16.90;4.25;;;11.20;99.90;;;;;;5061129;28;20599;-76
2023/05/30 03:27:15;;;;;;;17.77;3.88;;;11.20;99.90;;;;;;5059878;28;20036;-75
2023/05/30 03:29:41;;;;;;;16.00;4.00;;;11.20;99.90;;;;;;5062680;28;22357;-76
2023/05/30 03:32:07;;;;;;;13.73;4.32;;;11.20;99.90;;;;;;5060757;28;20419;-76
2023/05/30 03:34:33;;;;;;;16.00;4.85;;;11.20;99.90;;;;;;5064627;28;20037;-76
2023/05/30 03:36:59;;;;;;;14.90;4.18;;;11.20;99.90;;;;;;5062195;28;20500;-75
2023/05/30 03:39:25;;;;;;;16.85;4.00;;;11.20;99.90;;;;;;5047177;28;20064;-75
2023/05/30 03:41:51;;;;;;;15.45;3.70;;;11.20;99.90;;;;;;5041115;28;20526;-75
2023/05/30 03:44:16;;;;;;;13.75;4.50;;;11.20;99.90;;;;;;5057783;28;20037;-77
2023/05/30 03:46:42;;;;;;;15.80;4.47;;;11.20;99.90;;;;;;5059168;28;20085;-76
2023/05/30 03:49:07;;;;;;;19.02;3.92;;;11.20;99.90;;;;;;5060633;28;20515;-76
2023/05/30 03:51:35;;;;;;;17.80;4.13;;;11.20;99.90;;;;;;5043713;28;20487;-77
2023/05/30 03:54:01;;;;;;;13.63;3.45;;;11.20;99.90;;;;;;5060141;28;20040;-75
2023/05/30 03:56:27;;;;;;;14.88;3.97;;;11.20;99.90;;;;;;5060165;28;20048;-76
2023/05/30 03:58:52;;;;;;;13.90;4.07;;;11.20;99.90;;;;;;5058718;28;20621;-77
2023/05/30 04:01:18;;;;;;;21.08;5.15;;;11.20;99.90;;;;;;5040335;28;20051;-77
2023/05/30 04:03:45;;;;;;;12.95;4.25;;;11.20;99.90;;;;;;5064503;28;20048;-77
2023/05/30 04:06:10;;;;;;;18.60;5.40;;;11.30;99.90;;;;;;5063574;28;20040;-77
2023/05/30 04:08:36;;;;;;;13.27;3.83;;;11.30;99.90;;;;;;5059356;28;20041;-76
2023/05/30 04:11:03;;;;;;;20.05;5.07;;;11.30;99.90;;;;;;5061794;28;20079;-75
2023/05/30 04:13:29;;;;;;;14.10;4.10;;;11.30;99.90;;;;;;5063478;28;20625;-76
2023/05/30 04:15:54;;;;;;;27.25;5.47;;;11.30;99.90;;;;;;5060416;28;20075;-76
2023/05/30 04:18:20;;;;;;;16.77;4.10;;;11.40;99.90;;;;;;5058879;28;20059;-76
2023/05/30 04:20:46;;;;;;;15.70;4.03;;;11.30;99.90;;;;;;5061245;28;20495;-78
2023/05/30 04:23:12;;;;;;;14.07;4.32;;;11.40;99.90;;;;;;5059215;28;20132;-76
2023/05/30 04:25:38;;;;;;;13.93;3.45;;;11.40;99.90;;;;;;5063119;28;20032;-77
2023/05/30 04:28:05;;;;;;;12.38;3.60;;;11.40;99.90;;;;;;5058362;28;20040;-75
2023/05/30 04:30:33;;;;;;;19.70;4.80;;;11.40;99.90;;;;;;5061447;28;20427;-75
2023/05/30 04:33:00;;;;;;;15.18;4.20;;;11.40;99.90;;;;;;5066690;28;20391;-75
2023/05/30 04:35:28;;;;;;;12.10;4.18;;;11.40;99.90;;;;;;5067883;28;20048;-75
2023/05/30 04:37:55;;;;;;;20.95;4.22;;;11.50;99.90;;;;;;5062882;28;20527;-76
2023/05/30 04:40:21;;;;;;;13.13;3.85;;;11.50;99.90;;;;;;5055272;28;20051;-76
2023/05/30 04:42:51;;;;;;;14.90;3.97;;;11.50;99.90;;;;;;5059465;28;20063;-76
2023/05/30 04:45:18;;;;;;;11.27;4.22;;;11.50;99.90;;;;;;5060544;28;20048;-77
2023/05/30 04:47:45;;;;;;;12.35;3.40;;;11.50;99.90;;;;;;5056797;28;20127;-76
2023/05/30 04:50:15;;;;;;;17.77;4.35;;;11.50;99.90;;;;;;5038721;28;20049;-76
2023/05/30 04:52:42;;;;;;;14.57;4.82;;;11.50;99.90;;;;;;5038496;28;20496;-76
2023/05/30 04:55:08;;;;;;;16.08;4.40;;;11.60;99.90;;;;;;5061161;28;20136;-76
2023/05/30 04:57:34;;;;;;;23.52;6.88;;;11.60;99.90;;;;;;5056658;28;20059;-76
2023/05/30 05:00:00;;;;;;;15.02;4.00;;;11.60;99.90;;;;;;5067628;28;20036;-75
2023/05/30 05:02:28;;;;;;;17.08;3.95;;;11.50;99.90;;;;;;5062242;28;20072;-77
2023/05/30 05:04:54;;;;;;;11.90;4.18;;;11.60;99.90;;;;;;5050983;28;20043;-76
2023/05/30 05:07:19;;;;;;;10.85;3.25;;;11.60;99.90;;;;;;5059416;28;20056;-76
2023/05/30 05:09:48;;;;;;;12.38;3.00;;;11.60;99.90;;;;;;5059692;28;20404;-77
2023/05/30 05:12:14;;;;;;;10.32;2.95;;;11.60;99.90;;;;;;5044239;28;20580;-77
2023/05/30 05:14:42;;;;;;;12.13;3.72;;;11.60;99.90;;;;;;5065788;28;20045;-75
2023/05/30 05:17:08;;;;;;;11.85;3.10;;;11.60;99.90;;;;;;5050200;28;20044;-74
2023/05/30 05:19:34;;;;;;;10.85;3.47;;;11.60;99.90;;;;;;5052569;28;20051;-79
2023/05/30 05:22:02;;;;;;;10.25;3.38;;;11.60;99.90;;;;;;5061869;28;20416;-77
2023/05/30 05:24:28;;;;;;;14.57;3.55;;;11.60;99.90;;;;;;5062381;28;20423;-78
2023/05/30 05:26:54;;;;;;;13.05;3.65;;;11.60;99.90;;;;;;5061516;28;20041;-78
2023/05/30 05:29:20;;;;;;;18.70;4.40;;;11.60;99.90;;;;;;5063730;28;20125;-79
2023/05/30 05:31:46;;;;;;;10.52;3.63;;;11.60;99.90;;;;;;5063611;28;20043;-80
2023/05/30 05:34:11;;;;;;;10.38;3.85;;;11.70;99.90;;;;;;5062074;28;20071;-79
2023/05/30 05:36:37;;;;;;;10.32;3.35;;;11.70;99.90;;;;;;5059268;28;20053;-77
2023/05/30 05:39:03;;;;;;;13.15;3.35;;;11.70;99.90;;;;;;5061313;28;20044;-79
2023/05/30 05:41:28;;;;;;;12.95;4.00;;;11.70;99.90;;;;;;5043471;28;20067;-75
2023/05/30 05:43:55;;;;;;;8.35;3.13;;;11.70;99.90;;;;;;5043125;28;20492;-80
2023/05/30 05:46:20;;;;;;;7.28;2.47;;;11.70;99.90;;;;;;5061665;28;20036;-79
2023/05/30 05:48:46;;;;;;;7.43;2.88;;;11.70;99.90;;;;;;5049550;28;20384;-76
2023/05/30 05:51:12;;;;;;;7.68;2.72;;;11.70;99.90;;;;;;5067120;28;20599;-77
2023/05/30 05:53:37;;;;;;;12.77;3.22;;;11.70;99.90;;;;;;5067763;28;20521;-77
2023/05/30 05:56:03;;;;;;;8.98;3.20;;;11.70;99.90;;;;;;5067386;28;20487;-75
2023/05/30 05:58:28;;;;;;;7.50;2.70;;;11.70;99.90;;;;;;5070869;28;20127;-77
2023/05/30 06:00:54;;;;;;;8.30;2.72;;;11.70;99.90;;;;;;5071126;28;20036;-76
2023/05/30 06:03:20;;;;;;;8.30;3.00;;;11.70;99.90;;;;;;5038627;28;20124;-76
2023/05/30 06:05:46;;;;;;;10.38;3.25;;;11.80;99.90;;;;;;5054263;28;20086;-78
2023/05/30 06:08:11;;;;;;;14.48;3.92;;;11.70;99.90;;;;;;5067098;28;20048;-76
2023/05/30 06:10:40;;;;;;;9.52;3.22;;;11.70;99.90;;;;;;5068244;28;20056;-76
2023/05/30 06:13:07;;;;;;;14.57;3.88;;;11.80;99.90;;;;;;5058118;28;20044;-76
2023/05/30 06:15:32;;;;;;;19.48;4.78;;;11.80;99.90;;;;;;5068582;28;20037;-76
2023/05/30 06:17:58;;;;;;;13.10;3.85;;;11.80;99.90;;;;;;5043474;28;20418;-76
2023/05/30 06:20:24;;;;;;;13.20;4.00;;;11.80;99.90;;;;;;5062600;28;20513;-76
2023/05/30 06:22:49;;;;;;;14.63;4.47;;;11.80;99.90;;;;;;5055571;28;20664;-75
2023/05/30 06:25:18;;;;;;;16.55;4.15;;;11.80;99.90;;;;;;5056476;28;20041;-75
2023/05/30 06:27:44;;;;;;;13.55;3.70;;;11.80;99.90;;;;;;5053788;28;21778;-75
2023/05/30 06:30:10;;;;;;;13.60;4.40;;;11.90;99.90;;;;;;5069745;28;20048;-75
2023/05/30 06:32:35;;;;;;;10.75;3.55;;;11.90;99.90;;;;;;5069434;28;20485;-76
2023/05/30 06:35:01;;;;;;;10.32;3.90;;;11.90;99.90;;;;;;5069797;28;20105;-76
2023/05/30 06:37:27;;;;;;;11.65;3.80;;;11.90;99.90;;;;;;5067809;28;20440;-76
2023/05/30 06:39:52;;;;;;;11.82;3.60;;;12.00;99.90;;;;;;5063991;28;20194;-76
2023/05/30 06:42:20;;;;;;;10.82;3.72;;;12.00;99.90;;;;;;5063164;28;20045;-75
2023/05/30 06:44:49;;;;;;;13.40;4.07;;;12.00;99.90;;;;;;5069059;28;20041;-76
2023/05/30 06:47:15;;;;;;;8.02;3.50;;;12.00;99.90;;;;;;5067443;28;20063;-75
2023/05/30 06:49:43;;;;;;;13.38;3.50;;;12.00;99.90;;;;;;5068896;28;20068;-76
2023/05/30 06:52:09;;;;;;;9.77;3.90;;;12.10;99.90;;;;;;5067461;28;20060;-76
2023/05/30 06:54:34;;;;;;;9.60;3.17;;;12.10;99.90;;;;;;5063915;28;20059;-77
2023/05/30 06:57:03;;;;;;;10.18;3.40;;;12.20;99.90;;;;;;5061397;28;20049;-76
2023/05/30 06:59:30;;;;;;;6.22;2.55;;;12.20;99.90;;;;;;5065459;28;20551;-76
2023/05/30 07:01:55;;;;;;;6.78;2.42;;;12.20;99.90;;;;;;5053382;28;20040;-75
2023/05/30 07:04:23;;;;;;;13.15;3.55;;;12.20;99.90;;;;;;5064260;28;20044;-76
2023/05/30 07:06:49;;;;;;;10.65;3.80;;;12.20;99.90;;;;;;5067131;28;20051;-76
2023/05/30 07:09:18;;;;;;;7.90;3.60;;;12.20;99.90;;;;;;5061528;28;20040;-76
2023/05/30 07:11:43;;;;;;;8.95;2.83;;;12.20;99.90;;;;;;5068546;28;20045;-76
2023/05/30 07:14:11;;;;;;;18.15;3.58;;;12.20;99.90;;;;;;5062262;28;20124;-76
2023/05/30 07:16:37;;;;;;;6.97;2.42;;;12.20;99.90;;;;;;5066570;28;20090;-76
2023/05/30 07:19:02;;;;;;;5.72;2.28;;;12.30;99.90;;;;;;5064354;28;20510;-75
2023/05/30 07:21:29;;;;;;;8.60;2.33;;;12.30;99.90;;;;;;5054503;28;20053;-76
2023/05/30 07:23:55;;;;;;;4.25;1.90;;;12.40;99.90;;;;;;5020603;28;20041;-74
2023/05/30 07:26:21;;;;;;;8.05;2.88;;;12.40;99.90;;;;;;5052451;28;20109;-75
2023/05/30 07:28:47;;;;;;;5.18;2.00;;;12.40;99.90;;;;;;5070125;28;20090;-76
2023/05/30 07:31:12;;;;;;;6.25;2.13;;;12.50;99.90;;;;;;5064365;28;20044;-75
2023/05/30 07:33:38;;;;;;;9.48;2.15;;;12.50;99.90;;;;;;5049933;28;20045;-77
2023/05/30 07:36:04;;;;;;;6.80;2.10;;;12.50;99.90;;;;;;5063893;28;20041;-76
2023/05/30 07:38:29;;;;;;;4.30;1.73;;;12.50;99.90;;;;;;5065401;28;20048;-77
2023/05/30 07:40:55;;;;;;;7.20;2.28;;;12.60;99.90;;;;;;5066840;28;20063;-77
2023/05/30 07:43:21;;;;;;;6.28;2.20;;;12.60;99.90;;;;;;5066081;28;20488;-77
2023/05/30 07:45:46;;;;;;;5.95;1.98;;;12.60;99.90;;;;;;5042731;28;20407;-75
2023/05/30 07:48:12;;;;;;;9.52;2.45;;;12.60;99.90;;;;;;5065990;28;20127;-75
2023/05/30 07:50:38;;;;;;;6.38;2.20;;;12.60;99.90;;;;;;5066077;28;20055;-78
2023/05/30 07:53:03;;;;;;;6.30;2.40;;;12.60;99.90;;;;;;5068709;28;20048;-76
2023/05/30 07:55:29;;;;;;;6.75;2.60;;;12.60;99.90;;;;;;5062109;28;20041;-76
2023/05/30 07:57:54;;;;;;;5.82;2.15;;;12.60;99.90;;;;;;5063272;28;20090;-77
2023/05/30 08:00:20;;;;;;;8.45;2.17;;;12.70;99.90;;;;;;5037572;28;22376;-77
2023/05/30 08:02:46;;;;;;;3.35;1.35;;;12.70;99.90;;;;;;5056968;28;20079;-77
2023/05/30 08:05:11;;;;;;;3.85;1.60;;;12.90;99.90;;;;;;5067166;28;20052;-76
2023/05/30 08:07:37;;;;;;;4.50;2.40;;;12.90;99.90;;;;;;5066181;28;20049;-77
2023/05/30 08:10:03;;;;;;;4.95;1.85;;;13.00;99.90;;;;;;5053635;28;20063;-75
2023/05/30 08:12:29;;;;;;;2.67;1.38;;;13.00;99.90;;;;;;5066223;28;20055;-77
2023/05/30 08:14:56;;;;;;;4.25;1.30;;;13.10;99.90;;;;;;5064491;28;20439;-78
2023/05/30 08:17:23;;;;;;;5.13;1.42;;;13.10;99.90;;;;;;5059051;28;20037;-77
2023/05/30 08:19:52;;;;;;;4.03;1.40;;;13.10;99.90;;;;;;5057447;28;20045;-76
2023/05/30 08:22:21;;;;;;;4.72;1.27;;;13.20;99.90;;;;;;5056259;28;20132;-76
2023/05/30 08:24:50;;;;;;;3.72;1.20;;;13.20;99.90;;;;;;5042588;28;20607;-77
2023/05/30 08:27:20;;;;;;;3.47;1.27;;;13.20;99.90;;;;;;5061034;28;20033;-77
2023/05/30 08:29:49;;;;;;;3.55;1.20;;;13.40;99.90;;;;;;5059910;28;20117;-77
2023/05/30 08:32:18;;;;;;;2.75;1.45;;;13.40;99.90;;;;;;5070255;28;20094;-77
2023/05/30 08:34:45;;;;;;;2.47;1.10;;;13.50;99.90;;;;;;5060835;28;20040;-76
2023/05/30 08:37:12;;;;;;;3.70;1.35;;;13.60;99.90;;;;;;5065242;28;20044;-78
2023/05/30 08:39:37;;;;;;;4.20;1.30;;;13.60;99.90;;;;;;5069615;28;20044;-77
2023/05/30 08:42:04;;;;;;;2.63;1.30;;;13.60;99.90;;;;;;5053927;28;20114;-75
2023/05/30 08:44:30;;;;;;;3.30;1.40;;;13.60;99.90;;;;;;5067550;28;20041;-77
2023/05/30 08:46:59;;;;;;;2.97;0.98;;;13.60;99.90;;;;;;5057179;28;20119;-75
2023/05/30 08:49:31;;;;;;;1.90;0.82;;;13.70;99.90;;;;;;5053396;28;20048;-76
2023/05/30 08:52:01;;;;;;;1.77;1.00;;;13.70;99.90;;;;;;5070076;28;20040;-77
2023/05/30 08:54:32;;;;;;;3.63;1.55;;;13.80;99.90;;;;;;5068796;28;20048;-77
2023/05/30 08:57:35;;;;;;;3.63;1.27;;;13.70;99.90;;;;;;5070926;28;20110;-75
2023/05/30 09:00:05;;;;;;;;;;;13.70;99.90;;;;;;5052879;28;20094;-75
2023/05/30 09:02:33;;;;;;;3.42;1.55;;;13.60;99.90;;;;;;5066697;28;19924;-75
2023/05/30 09:04:59;;;;;;;2.35;0.95;;;13.40;99.90;;;;;;5060554;28;20043;-76
2023/05/30 09:07:27;;;;;;;4.20;1.30;;;13.30;99.90;;;;;;5060710;28;20047;-76
2023/05/30 09:09:53;;;;;;;2.85;1.48;;;13.30;99.90;;;;;;5065796;28;20041;-75
2023/05/30 09:12:20;;;;;;;4.97;1.25;;;13.30;99.90;;;;;;5069565;28;20037;-74
2023/05/30 09:14:46;;;;;;;7.30;2.15;;;13.30;99.90;;;;;;5061651;28;20053;-76
2023/05/30 09:17:12;;;;;;;3.70;1.50;;;13.20;99.90;;;;;;5062519;28;20040;-75
2023/05/30 09:19:38;;;;;;;7.28;1.73;;;13.40;99.90;;;;;;5069343;28;20037;-76
2023/05/30 09:22:06;;;;;;;5.68;1.73;;;13.40;99.90;;;;;;5066364;28;20079;-75
2023/05/30 09:24:59;;;;;;;2.85;1.45;;;13.60;99.90;;;;;;5065937;28;20487;-77
2023/05/30 09:27:26;;;;;;;4.57;1.90;;;13.70;99.90;;;;;;5066347;28;20411;-75
2023/05/30 09:29:52;;;;;;;3.47;1.60;;;13.80;99.90;;;;;;5053889;28;20598;-75
2023/05/30 09:32:19;;;;;;;4.53;1.75;;;13.90;99.90;;;;;;5067638;28;20047;-73
2023/05/30 09:35:05;;;;;;;4.05;1.70;;;13.80;99.90;;;;;;5066563;28;20036;-75
2023/05/30 09:37:39;;;;;;;4.95;1.67;;;13.70;99.90;;;;;;5051406;28;20670;-75
2023/05/30 09:40:08;;;;;;;4.07;1.70;;;13.60;99.90;;;;;;5069392;28;20041;-85
2023/05/30 09:42:47;;;;;;;2.75;1.60;;;13.60;99.90;;;;;;5068774;28;20048;-82
2023/05/30 09:45:15;;;;;;;5.28;2.00;;;13.50;99.90;;;;;;5059161;28;20083;-83
2023/05/30 09:47:49;;;;;;;5.57;1.85;;;13.50;99.90;;;;;;5053505;28;20037;-86
2023/05/30 09:50:19;;;;;;;3.45;1.67;;;13.50;99.90;;;;;;5067198;28;20063;-87
2023/05/30 09:52:49;;;;;;;4.35;1.70;;;13.50;99.90;;;;;;5070682;28;20132;-86
2023/05/30 09:55:18;;;;;;;3.42;1.75;;;13.60;99.90;;;;;;5067772;28;20416;-84
2023/05/30 09:57:49;;;;;;;2.75;1.75;;;13.70;99.90;;;;;;5061101;28;20145;-87
2023/05/30 10:00:22;;;;;;;4.15;1.77;;;13.80;99.90;;;;;;5058724;28;20418;-86
2023/05/30 10:02:53;;;;;;;6.13;2.00;;;13.80;99.90;;;;;;5050898;28;20053;-84
2023/05/30 10:05:24;;;;;;;3.22;1.80;;;13.90;99.90;;;;;;5067587;28;20066;-82
2023/05/30 10:07:53;;;;;;;3.17;1.20;;;13.80;99.90;;;;;;5061903;28;20049;-84
2023/05/30 10:10:19;;;;;;;4.25;1.20;;;13.80;99.90;;;;;;5059230;28;20040;-85
2023/05/30 10:12:49;;;;;;;3.78;1.30;;;13.70;99.90;;;;;;5067483;28;20082;-84
2023/05/30 10:15:19;;;;;;;5.70;1.40;;;13.70;99.90;;;;;;5066409;28;20048;-86
2023/05/30 10:18:06;;;;;;;3.47;1.60;;;13.70;99.90;;;;;;5066894;28;20036;-84
2023/05/30 10:20:37;;;;;;;3.38;1.20;;;13.80;99.90;;;;;;5059719;28;20045;-85
2023/05/30 10:23:07;;;;;;;2.25;1.30;;;13.80;99.90;;;;;;5064370;28;20082;-84
2023/05/30 10:25:36;;;;;;;4.20;1.25;;;13.80;99.90;;;;;;5052819;28;20487;-87
2023/05/30 10:28:05;;;;;;;3.85;1.10;;;13.80;99.90;;;;;;5051502;28;20040;-86
2023/05/30 10:30:32;;;;;;;2.63;1.00;;;13.90;99.90;;;;;;5058309;28;20041;-86
2023/05/30 10:33:12;;;;;;;4.72;1.60;;;13.90;99.90;;;;;;5063677;28;20056;-87
2023/05/30 10:35:38;;;;;;;4.38;1.58;;;14.00;99.90;;;;;;5051321;28;20060;-83
2023/05/30 10:38:11;;;;;;;4.75;1.50;;;14.20;99.90;;;;;;5063252;28;20056;-89
2023/05/30 10:40:40;;;;;;;2.47;1.17;;;14.30;99.90;;;;;;5067193;28;20067;-85
2023/05/30 10:43:14;;;;;;;2.20;1.00;;;14.40;99.90;;;;;;5050988;28;20443;-84
2023/05/30 10:45:40;;;;;;;3.65;1.20;;;14.40;99.90;;;;;;5050653;28;20048;-85
2023/05/30 10:48:29;;;;;;;3.22;1.05;;;14.40;99.90;;;;;;5062011;28;20044;-85
2023/05/30 10:51:01;;;;;;;2.88;0.90;;;14.50;99.90;;;;;;5029942;28;20048;-85
2023/05/30 10:53:27;;;;;;;1.98;1.10;;;14.60;99.90;;;;;;5055910;28;20518;-84
2023/05/30 10:55:53;;;;;;;2.33;1.00;;;14.70;99.90;;;;;;5041541;28;20579;-86
2023/05/30 10:58:41;;;;;;;3.58;0.95;;;14.80;99.90;;;;;;5049606;28;20160;-85
2023/05/30 11:01:25;;;;;;;2.78;1.10;;;14.80;99.90;;;;;;5050383;28;20049;-87
2023/05/30 11:04:05;;;;;;;3.42;1.30;;;14.70;99.90;;;;;;5068502;28;20136;-84
2023/05/30 11:06:42;;;;;;;2.00;1.25;;;14.70;99.90;;;;;;5061785;28;20047;-84
2023/05/30 11:09:18;;;;;;;2.25;1.30;;;14.60;99.90;;;;;;5068533;28;20074;-84
2023/05/30 11:11:52;;;;;;;3.08;1.23;;;14.50;99.90;;;;;;5057125;28;20044;-84
2023/05/30 11:14:33;;;;;;;3.28;1.00;;;14.60;99.90;;;;;;5065840;28;20858;-87
2023/05/30 11:17:01;;;;;;;2.08;1.20;;;14.60;99.90;;;;;;5059643;28;20045;-84
2023/05/30 11:19:40;;;;;;;6.75;1.50;;;14.70;99.90;;;;;;5068872;28;20075;-87
2023/05/30 11:22:10;;;;;;;2.35;1.30;;;14.80;99.90;;;;;;5048204;28;20052;-83
2023/05/30 11:24:36;;;;;;;2.58;1.17;;;15.00;99.90;;;;;;5067162;28;20654;-86
2023/05/30 11:27:09;;;;;;;4.55;1.30;;;15.00;99.90;;;;;;5046764;28;20037;-84
2023/05/30 11:29:48;;;;;;;2.22;1.08;;;14.90;99.90;;;;;;5058699;28;20132;-84
2023/05/30 11:32:18;;;;;;;1.98;1.10;;;14.90;99.90;;;;;;5059747;28;20717;-85
2023/05/30 11:34:43;;;;;;;2.75;1.30;;;14.80;99.90;;;;;;5063343;28;20043;-84
2023/05/30 11:37:11;;;;;;;3.05;1.40;;;14.80;99.90;;;;;;5060446;28;20049;-86
2023/05/30 11:39:37;;;;;;;2.47;1.25;;;14.80;99.90;;;;;;5062373;28;20052;-86
2023/05/30 11:42:03;;;;;;;2.00;1.27;;;15.00;99.90;;;;;;5063726;28;20045;-86
2023/05/30 11:44:32;;;;;;;4.50;1.52;;;15.10;99.90;;;;;;5061823;28;20507;-84
2023/05/30 11:46:59;;;;;;;2.85;1.30;;;15.30;99.90;;;;;;5062355;28;20569;-84
2023/05/30 11:49:25;;;;;;;2.72;1.40;;;15.30;99.90;;;;;;5062299;28;20162;-85
2023/05/30 11:51:52;;;;;;;3.67;1.15;;;15.30;99.90;;;;;;5044569;28;20048;-84
2023/05/30 11:54:18;;;;;;;1.58;1.00;;;15.30;99.90;;;;;;5059463;28;20187;-83
2023/05/30 11:56:44;;;;;;;2.63;1.10;;;15.30;99.90;;;;;;5056399;28;20624;-86
2023/05/30 11:59:11;;;;;;;1.92;1.10;;;15.30;99.90;;;;;;5058251;28;20044;-85
2023/05/30 12:01:37;;;;;;;3.30;1.10;;;15.40;99.90;;;;;;5058682;28;20080;-86
2023/05/30 12:04:05;;;;;;;18.50;1.95;;;15.50;99.90;;;;;;5050212;28;20536;-86
2023/05/30 12:06:31;;;;;;;4.78;1.48;;;15.50;99.90;;;;;;5065668;28;20072;-80
2023/05/30 12:08:57;;;;;;;4.32;2.17;;;15.60;99.90;;;;;;5064671;28;20511;-73
2023/05/30 12:11:23;;;;;;;4.70;1.95;;;15.60;99.90;;;;;;5061137;28;20036;-77
2023/05/30 12:13:54;;;;;;;6.13;2.22;;;15.50;99.90;;;;;;5055704;28;20064;-78
2023/05/30 12:16:20;;;;;;;8.07;1.98;;;15.60;99.90;;;;;;5061446;28;20507;-78
2023/05/30 12:18:48;;;;;;;3.42;1.77;;;15.60;99.90;;;;;;5057201;28;20036;-78
2023/05/30 12:21:15;;;;;;;3.13;1.75;;;15.60;99.90;;;;;;5061041;28;20095;-78
2023/05/30 12:23:42;;;;;;;2.78;1.40;;;15.70;99.90;;;;;;5059135;28;20434;-78
2023/05/30 12:26:18;;;;;;;3.72;1.38;;;15.80;99.90;;;;;;5054644;28;20123;-78
2023/05/30 12:28:49;;;;;;;4.78;1.77;;;16.00;99.90;;;;;;5059217;28;20552;-78
2023/05/30 12:31:23;;;;;;;3.45;1.60;;;16.20;99.90;;;;;;5057157;28;20421;-78
2023/05/30 12:33:49;;;;;;;5.55;2.45;;;16.40;99.90;;;;;;5065486;28;20074;-78
2023/05/30 12:36:15;;;;;;;4.25;1.60;;;16.40;99.90;;;;;;5061400;28;20606;-78
2023/05/30 12:38:41;;;;;;;3.42;1.33;;;16.40;99.90;;;;;;5063014;28;20395;-77
2023/05/30 12:41:07;;;;;;;2.63;1.33;;;16.40;99.90;;;;;;5048927;28;20048;-78
2023/05/30 12:43:33;;;;;;;4.20;1.60;;;16.40;99.90;;;;;;5045716;28;20053;-78
2023/05/30 12:46:05;;;;;;;2.20;1.40;;;16.40;99.90;;;;;;5061116;28;20411;-77
2023/05/30 12:48:31;;;;;;;3.30;1.52;;;16.40;99.90;;;;;;5047635;28;20040;-78